Latest Weather Observations for Warracknabeal Airport

IDV60801

Issued at 11:12 am EDT Thursday 23 January 2020 (issued every 10 minutes, with the page automatically refreshed every 10 minutes)

About weather observations | Map of weather stations | Latest weather observations for VIC | Other Formats
Station Details ID: 078018 Name: WARRACKNABEAL AIRPORT Lat: -36.32 Lon: 142.42 Height: 118.3 m
Data from the previous 72 hours. | See also: Recent months at Warracknabeal Airport
Date/Time
EDT
Temp
°C
App
Temp
°C
Dew
Point
°C
Rel
Hum
%
Delta-T
°C
Wind Press
QNH
hPa
Press
MSL
hPa
Rain since
9am
mm
Dir  Spd
km/h
Gust
km/h
Spd
kts
Gust
kts
23/11:10am 16.3 9.7 11.5 73 2.6 WNW 37 56 20 30 999.3 998.9 0.0
23/11:05am 18.3 13.0 11.4 64 3.8 NW 30 52 16 28 998.7 998.3 0.0
23/11:00am 18.4 13.6 13.9 75 2.6 NW 32 43 17 23 998.5 998.1 0.0
23/10:30am 17.0 11.6 12.7 76 2.4 NNW 33 46 18 25 998.5 998.1 0.0
23/10:03am 16.6 12.4 13.5 82 1.8 NW 28 46 15 25 998.6 998.2 0.0
23/10:00am 16.7 12.8 14.3 86 1.4 NW 28 39 15 21 998.7 998.3 0.0
23/09:30am 15.5 12.4 13.5 88 1.1 NNW 22 32 12 17 998.7 998.3 0.0
23/09:00am 14.8 12.2 13.8 94 0.6 NNW 20 24 11 13 998.5 998.1 10.8
23/08:30am 13.7 11.9 13.4 98 0.2 N 15 19 8 10 998.4 998.0 10.8
23/08:00am 13.0 11.8 12.8 99 0.1 N 11 15 6 8 998.3 997.9 10.8
23/07:30am 12.7 12.3 12.5 99 0.1 WSW 6 9 3 5 998.0 997.6 10.8
23/07:00am 12.4 12.7 12.2 99 0.1 WSW 2 7 1 4 997.8 997.3 10.8
23/06:30am 12.3 13.0 12.1 99 0.1 CALM 0 0 0 0 997.5 997.0 10.6
23/06:00am 12.3 11.6 12.1 99 0.1 WSW 7 11 4 6 997.2 996.7 9.8
23/05:30am 12.2 9.9 11.7 97 0.3 WSW 15 17 8 9 997.8 997.3 8.6
23/05:00am 13.2 12.0 12.7 97 0.3 SSW 11 15 6 8 998.1 997.7 7.6
23/04:30am 13.0 12.5 12.5 97 0.3 SSW 7 11 4 6 998.1 997.7 7.6
23/04:00am 13.1 11.5 12.8 98 0.2 SSW 13 15 7 8 998.2 997.8 7.4
23/03:30am 12.9 11.5 12.3 96 0.3 SSW 11 13 6 7 998.3 997.9 7.2
23/03:00am 12.8 12.2 12.2 96 0.3 SSW 7 9 4 5 998.3 997.9 6.6
23/02:30am 12.9 11.8 12.1 95 0.4 SSW 9 11 5 6 998.3 997.9 6.0
23/02:00am 13.1 12.5 12.3 95 0.4 SSW 7 9 4 5 998.6 998.2 5.8
23/01:30am 13.2 12.6 12.3 94 0.5 SSW 7 11 4 6 998.9 998.5 5.0
23/01:00am 13.5 12.2 12.6 94 0.5 SSW 11 11 6 6 999.0 998.6 4.6
23/12:30am 13.6 12.0 12.7 94 0.5 SSW 13 17 7 9 999.6 999.1 4.2
23/12:00am 13.7 11.3 12.6 93 0.6 SSW 17 20 9 11 999.3 998.9 3.6
 
Date/Time
EDT
Temp
°C
App
Temp
°C
Dew
Point
°C
Rel
Hum
%
Delta-T
°C
Wind Press
QNH
hPa
Press
MSL
hPa
Rain since
9am
mm
Dir  Spd
km/h
Gust
km/h
Spd
kts
Gust
kts
22/11:30pm 13.8 11.4 12.7 93 0.6 SSW 17 20 9 11 999.6 999.1 3.2
22/11:00pm 13.8 11.7 12.4 91 0.8 SSW 15 17 8 9 999.8 999.3 3.0
22/10:30pm 14.1 12.9 11.6 85 1.3 SSW 9 15 5 8 1000.6 1000.1 1.8
22/10:00pm 14.3 10.7 11.8 85 1.4 SSW 22 28 12 15 999.7 999.2 1.0
22/09:30pm 15.1 11.3 11.1 77 2.1 SW 22 28 12 15 999.8 999.3 0.6
22/09:00pm 16.0 13.7 10.3 69 3.0 SW 13 19 7 10 1000.8 1000.3 0.4
22/08:55pm 16.0 13.2 10.1 68 3.1 SW 15 19 8 10 1000.7 1000.2 0.4
22/08:30pm 16.4 12.4 10.3 67 3.2 WSW 22 32 12 17 998.6 998.2 0.4
22/08:00pm 16.6 12.7 12.2 75 2.4 SW 24 32 13 17 998.1 997.7 0.2
22/07:30pm 16.4 12.4 13.1 81 1.9 SW 26 32 14 17 996.8 996.3 0.2
22/07:00pm 17.5 12.9 13.6 78 2.2 SW 30 41 16 22 997.5 997.0 0.0
22/06:30pm 18.8 14.2 13.6 72 3.0 SW 30 39 16 21 996.8 996.3 0.0
22/06:00pm 21.0 15.1 12.4 58 4.9 SW 35 44 19 24 996.8 996.3 0.0
22/05:30pm 24.6 17.2 9.7 39 8.2 WSW 39 54 21 29 996.7 996.2 0.0
22/05:24pm 25.4 18.7 9.7 37 8.7 WSW 35 54 19 29 996.6 996.1 0.0
22/05:00pm 27.4 19.9 11.0 36 9.4 WSW 41 56 22 30 996.3 995.8 0.0
22/04:34pm 28.6 20.4 9.8 31 10.6 W 43 61 23 33 995.6 995.1 0.0
22/04:30pm 30.6 23.0 8.9 26 12.1 NW 39 54 21 29 995.5 995.0 0.0
22/04:28pm 32.5 24.1 7.4 21 13.8 NNW 41 57 22 31 995.3 994.8 0.0
22/04:04pm 33.5 24.6 5.1 17 15.2 NNW 41 59 22 32 995.3 994.8 0.0
22/04:00pm 33.1 23.8 4.8 17 15.1 NNW 43 59 23 32 995.5 995.0 0.0
22/03:37pm 32.5 24.2 5.9 19 14.3 NNW 39 57 21 31 996.3 995.8 0.0
22/03:30pm 32.0 23.3 6.2 20 13.9 NNW 41 56 22 30 996.4 995.9 0.0
22/03:11pm 31.8 22.7 6.1 20 13.8 NNW 43 72 23 39 996.6 996.1 0.0
22/03:00pm 31.3 22.3 6.4 21 13.5 NNW 43 59 23 32 997.0 996.5 0.0
22/02:44pm 31.4 22.8 6.5 21 13.5 NNW 41 59 22 32 997.5 997.0 0.0
22/02:42pm 31.6 22.9 5.9 20 13.8 NNW 41 59 22 32 997.5 997.0 0.0
22/02:30pm 30.2 19.3 7.4 24 12.4 NNW 54 80 29 43 997.4 996.9 0.0
22/02:26pm 28.7 18.8 8.4 28 11.2 NNW 50 80 27 43 997.8 997.3 0.0
22/02:22pm 30.9 21.2 6.0 21 13.3 N 46 80 25 43 997.6 997.1 0.0
22/02:00pm 31.5 23.2 4.3 18 14.3 NNW 37 61 20 33 997.8 997.3 0.0
22/01:35pm 31.3 21.9 4.2 18 14.1 N 43 63 23 34 997.7 997.2 0.0
22/01:30pm 31.2 21.7 4.1 18 14.1 N 43 57 23 31 997.9 997.5 0.0
22/01:00pm 31.2 21.7 4.1 18 14.1 N 43 59 23 32 998.3 997.9 0.0
22/12:53pm 30.7 21.5 3.7 18 13.9 N 41 59 22 32 998.4 998.0 0.0
22/12:30pm 30.0 20.3 3.9 19 13.4 N 44 57 24 31 999.2 998.8 0.0
22/12:04pm 30.0 21.3 3.9 19 13.4 N 39 61 21 33 999.8 999.3 0.0
22/12:00pm 30.2 21.6 4.8 20 13.3 N 39 56 21 30 999.9 999.4 0.0
22/11:52am 29.6 21.3 4.3 20 13.0 N 37 56 20 30 1000.1 999.6 0.0
22/11:30am 28.9 20.4 5.1 22 12.4 N 39 50 21 27 1001.0 1000.5 0.0
22/11:00am 28.3 19.8 5.2 23 12.1 N 39 50 21 27 1001.2 1000.7 0.0
22/10:30am 28.3 19.2 5.8 24 11.8 N 43 56 23 30 1001.2 1000.7 0.0
22/10:09am 28.0 18.5 6.7 26 11.3 N 46 65 25 35 1001.3 1000.8 0.0
22/10:00am 27.7 18.2 6.5 26 11.3 N 46 59 25 32 1001.4 1000.9 0.0
22/09:30am 26.7 19.0 7.2 29 10.4 N 37 57 20 31 1001.9 1001.4 0.0
22/09:00am 25.6 18.3 7.2 31 9.8 N 35 48 19 26 1002.3 1001.8 0.0
22/08:30am 24.4 17.4 8.4 36 8.6 N 35 46 19 25 1002.2 1001.7 0.0
22/08:00am 22.4 16.5 9.2 43 7.1 N 30 41 16 22 1001.9 1001.4 0.0
22/07:30am 20.5 15.8 9.1 48 6.1 NNE 24 32 13 17 1001.7 1001.2 0.0
22/07:00am 20.5 15.0 9.1 48 6.1 NNE 28 39 15 21 1001.7 1001.2 0.0
22/06:30am 19.9 15.3 9.5 51 5.6 NNE 24 35 13 19 1001.5 1001.0 0.0
22/06:00am 19.1 13.4 9.9 55 5.0 NNE 30 44 16 24 1001.5 1001.0 0.0
22/05:59am 19.3 14.0 10.0 55 5.0 NNE 28 44 15 24 1001.5 1001.0 0.0
22/05:30am 17.2 13.3 9.4 60 4.1 NNE 20 24 11 13 1002.6 1002.1 0.0
22/05:00am 16.9 12.8 8.8 59 4.2 NNE 20 26 11 14 1002.8 1002.3 0.0
22/04:30am 16.7 12.7 8.4 58 4.3 NNE 19 20 10 11 1003.3 1002.8 0.0
22/04:00am 16.2 12.6 6.6 53 4.8 NNE 15 17 8 9 1003.8 1003.3 0.0
22/03:30am 16.8 12.8 6.6 51 5.1 NNE 17 20 9 11 1004.1 1003.6 0.0
22/03:00am 16.2 12.8 6.1 51 5.0 N 13 15 7 8 1004.0 1003.5 0.0
22/02:30am 16.2 12.8 6.1 51 4.9 N 13 15 7 8 1004.3 1003.8 0.0
22/02:00am 17.7 14.1 6.6 48 5.6 N 15 20 8 11 1004.7 1004.2 0.0
22/01:30am 17.8 14.6 6.7 48 5.5 N 13 15 7 8 1004.9 1004.4 0.0
22/01:00am 17.7 14.0 6.3 47 5.7 N 15 15 8 8 1005.1 1004.6 0.0
22/12:30am 18.2 15.2 6.1 45 6.0 N 11 15 6 8 1005.5 1005.1 0.0
22/12:00am 17.7 13.8 5.3 44 6.0 N 15 17 8 9 1005.5 1005.1 0.0
 
Date/Time
EDT
Temp
°C
App
Temp
°C
Dew
Point
°C
Rel
Hum
%
Delta-T
°C
Wind Press
QNH
hPa
Press
MSL
hPa
Rain since
9am
mm
Dir  Spd
km/h
Gust
km/h
Spd
kts
Gust
kts
21/11:30pm 19.9 16.0 5.2 38 7.2 N 15 19 8 10 1005.7 1005.3 0.0
21/11:00pm 21.1 16.8 5.1 35 8.0 N 17 20 9 11 1005.7 1005.3 0.0
21/10:30pm 18.2 14.1 2.1 34 7.4 NNW 13 15 7 8 1005.8 1005.4 0.0
21/10:00pm 20.2 17.0 3.0 32 8.2 NNW 9 9 5 5 1005.7 1005.3 0.0
21/09:30pm 21.6 18.0 2.8 29 8.9 NNW 11 11 6 6 1005.8 1005.4 0.0
21/09:00pm 23.4 19.5 3.4 27 9.8 NW 13 15 7 8 1005.8 1005.4 0.0
21/08:30pm 25.9 22.1 3.8 24 11.0 NW 13 20 7 11 1005.7 1005.3 0.0
21/08:00pm 27.3 22.6 3.1 21 12.1 NNW 17 24 9 13 1005.5 1005.1 0.0
21/07:30pm 28.0 22.9 3.0 20 12.5 NNW 19 28 10 15 1005.5 1005.1 0.0
21/07:00pm 27.7 24.3 4.1 22 12.0 WSW 11 15 6 8 1005.6 1005.2 0.0
21/06:30pm 28.0 23.1 4.3 22 12.1 NW 19 26 10 14 1005.7 1005.3 0.0
21/06:00pm 28.2 24.8 3.8 21 12.4 WNW 11 24 6 13 1006.0 1005.6 0.0
21/05:30pm 26.7 22.4 3.2 22 11.7 NW 15 28 8 15 1006.3 1005.9 0.0
21/05:00pm 27.6 22.5 3.3 21 12.2 WNW 19 35 10 19 1006.7 1006.3 0.0
21/04:30pm 27.5 22.5 4.5 23 11.7 NW 20 32 11 17 1007.1 1006.7 0.0
21/04:00pm 26.7 23.0 4.5 24 11.3 W 13 26 7 14 1007.4 1007.0 0.0
21/03:30pm 26.6 21.9 5.0 25 11.1 WNW 19 32 10 17 1007.7 1007.3 0.0
21/03:00pm 25.2 21.2 4.9 27 10.3 W 15 30 8 16 1008.3 1007.8 0.0
21/02:30pm 24.8 20.6 5.6 29 9.8 WNW 17 26 9 14 1008.7 1008.2 0.0
21/02:00pm 24.8 20.6 5.6 29 9.8 SW 17 26 9 14 1009.3 1008.8 0.0
21/01:30pm 23.4 19.5 5.3 31 9.1 WSW 15 22 8 12 1009.5 1009.0 0.0
21/01:00pm 22.2 19.4 5.2 33 8.5 WNW 9 20 5 11 1010.1 1009.6 0.0
21/12:30pm 21.6 19.0 6.3 37 7.8 WNW 9 15 5 8 1010.6 1010.1 0.0
21/12:00pm 20.3 17.0 6.6 41 7.0 W 13 20 7 11 1010.9 1010.4 0.0
21/11:30am 19.2 16.9 7.6 47 6.0 N 9 17 5 9 1011.1 1010.6 0.0
21/11:00am 18.7 16.9 7.8 49 5.6 SSW 7 9 4 5 1011.6 1011.1 0.0
21/10:30am 17.9 16.2 8.5 54 4.9 SSW 7 11 4 6 1011.8 1011.3 0.0
21/10:00am 16.1 14.5 8.1 59 4.1 SSW 6 11 3 6 1012.1 1011.6 0.0
21/09:30am 15.6 14.0 8.8 64 3.5 SSW 7 13 4 7 1012.3 1011.8 0.0
21/09:00am 14.5 13.0 9.1 70 2.8 SSW 7 11 4 6 1012.2 1011.7 0.4
21/08:30am 12.6 10.2 8.7 77 2.0 SSW 11 13 6 7 1011.9 1011.4 0.4
21/08:00am 10.8 8.3 8.2 84 1.3 SSW 11 13 6 7 1011.8 1011.3 0.4
21/07:30am 9.1 7.3 7.9 92 0.6 SSW 7 11 4 6 1011.4 1010.9 0.4
21/07:00am 8.0 6.2 7.2 95 0.4 SSW 6 9 3 5 1010.9 1010.4 0.4
21/06:30am 7.8 5.4 6.9 94 0.4 SSW 9 11 5 6 1010.7 1010.2 0.4
21/06:00am 8.2 5.5 7.3 94 0.4 SSW 11 13 6 7 1010.4 1009.9 0.4
21/05:30am 8.9 6.3 7.8 93 0.5 SSW 11 11 6 6 1009.7 1009.2 0.4
21/05:00am 9.8 7.0 8.4 91 0.7 SSW 13 17 7 9 1009.4 1008.9 0.4
21/04:30am 10.0 7.6 8.6 91 0.7 SSW 11 13 6 7 1009.3 1008.8 0.4
21/04:00am 10.8 8.1 9.1 89 0.9 SSW 13 17 7 9 1009.3 1008.8 0.4
21/03:30am 11.5 8.9 9.4 87 1.1 SSW 13 17 7 9 1009.2 1008.7 0.4
21/03:00am 11.9 8.6 9.6 86 1.2 SSW 17 20 9 11 1009.0 1008.5 0.4
21/02:30am 12.3 9.0 9.7 84 1.3 SSW 17 22 9 12 1009.3 1008.8 0.4
21/02:00am 12.8 9.0 9.8 82 1.5 SSW 20 26 11 14 1009.4 1008.9 0.4
21/01:30am 13.0 9.3 10.0 82 1.6 SSW 20 24 11 13 1009.7 1009.2 0.4
21/01:00am 13.4 10.3 10.4 82 1.6 SSW 17 20 9 11 1009.9 1009.4 0.4
21/12:30am 14.1 10.7 10.7 80 1.8 SSW 19 24 10 13 1009.9 1009.4 0.4
21/12:00am 14.7 10.4 10.9 78 2.0 SSW 24 30 13 16 1009.8 1009.3 0.4
 
Date/Time
EDT
Temp
°C
App
Temp
°C
Dew
Point
°C
Rel
Hum
%
Delta-T
°C
Wind Press
QNH
hPa
Press
MSL
hPa
Rain since
9am
mm
Dir  Spd
km/h
Gust
km/h
Spd
kts
Gust
kts
20/11:30pm 14.8 11.5 11.0 78 2.0 SSW 19 24 10 13 1009.8 1009.3 0.4
20/11:00pm 15.3 11.5 11.3 77 2.2 SSW 22 28 12 15 1009.7 1009.2 0.4
20/10:30pm 15.8 11.7 11.4 75 2.4 SSW 24 33 13 18 1009.5 1009.0 0.4
20/10:00pm 16.1 11.8 11.9 76 2.3 SSW 26 33 14 18 1009.5 1009.0 0.4
20/09:30pm 17.0 12.5 12.5 75 2.5 SSW 28 37 15 20 1008.9 1008.4 0.4
20/09:00pm 17.9 13.5 12.8 72 2.9 SSW 28 37 15 20 1008.5 1008.0 0.4
20/08:30pm 18.7 13.3 12.9 69 3.3 SSW 33 44 18 24 1008.0 1007.6 0.4
20/08:00pm 19.9 14.2 13.1 65 3.9 SSW 35 46 19 25 1007.4 1007.0 0.4
20/07:30pm 20.7 13.9 13.2 62 4.3 SSW 41 54 22 29 1006.9 1006.5 0.4
20/07:00pm 21.3 14.5 13.2 60 4.7 SSW 41 57 22 31 1006.4 1006.0 0.4
20/06:30pm 22.2 15.1 13.5 57 5.1 SSW 43 56 23 30 1005.8 1005.4 0.4
20/06:00pm 22.4 14.7 13.2 56 5.3 SSW 46 56 25 30 1005.5 1005.1 0.4
20/05:30pm 23.1 15.2 13.8 55 5.5 SSW 48 63 26 34 1005.1 1004.6 0.4
20/05:23pm 23.2 16.1 13.9 56 5.5 SW 44 63 24 34 1005.0 1004.5 0.4
20/05:00pm 24.2 16.9 14.6 55 5.7 SW 46 59 25 32 1004.8 1004.3 0.4
20/04:35pm 25.3 18.4 14.4 50 6.5 SSW 44 63 24 34 1004.5 1004.0 0.4
20/04:30pm 24.5 17.2 14.6 54 5.9 SSW 46 63 25 34 1004.5 1004.0 0.4
20/04:14pm 26.3 20.0 14.7 48 7.0 SSW 41 59 22 32 1004.2 1003.7 0.4
20/04:00pm 25.0 18.2 14.2 51 6.4 SSW 43 57 23 31 1004.2 1003.7 0.4
20/03:34pm 25.7 20.3 13.9 48 7.0 SSW 35 54 19 29 1004.1 1003.6 0.4
20/03:30pm 25.8 19.9 13.6 47 7.2 SSW 37 50 20 27 1004.1 1003.6 0.4
20/03:00pm 25.6 19.7 14.7 51 6.6 SW 39 52 21 28 1004.2 1003.7 0.4
20/02:30pm 24.8 19.0 14.9 54 6.0 SW 39 52 21 28 1004.2 1003.7 0.4
20/02:00pm 25.1 20.4 14.9 53 6.2 SSW 33 43 18 23 1004.5 1004.0 0.4
20/01:30pm 24.6 19.7 15.2 55 5.7 SSW 35 48 19 26 1004.5 1004.0 0.4
20/01:00pm 26.0 20.9 14.8 50 6.8 SSW 35 50 19 27 1004.2 1003.7 0.4
20/12:30pm 25.2 20.5 14.9 52 6.2 S 33 43 18 23 1004.7 1004.2 0.4
20/12:00pm 23.7 20.1 15.2 59 5.1 S 28 43 15 23 1004.8 1004.3 0.4
20/11:30am 22.0 18.4 16.3 70 3.5 S 30 37 16 20 1005.1 1004.6 0.4

Other formats

Comma delimited format used in spreadsheet applications
http://www.bom.gov.au/fwo/IDV60801/IDV60801.94920.axf

JavaScript Object Notation format (JSON) in row-major order
http://www.bom.gov.au/fwo/IDV60801/IDV60801.94920.json

Data quality

Most of these data are generated automatically and are frequently updated. Quality checks on data are not normally performed. It is possible for incorrect values to appear. Refer to information at About Latest Weather Observations and please check the disclaimer before using these data.